Somerset, Colorado
Current Conditions -  °F | °C
As of 7:15 PM on Saturday 25 Oct 2014 (Local Time) from KAJZ Reporting Station
Clear Clear  
Wind Chill: 72°   Ceiling: Unl
Heat Index: 72°   Visibility: 10mi
Dew Point: 29°   Wind: 10mph
Humidity: 20%   Direction: 260°W
Pressure: 30.11"   Gusts: NA
Location:  38.93°N, 107.47°W
Report Text: KAJZ 260115Z AUTO 26009KT 10SM CLR 22/M02 A3011 RMK AO2 T02221018
Loading
Personal Weather Stations






























Interactive Weather Map
Tropical Storm Tracking
New forecast layout! Learn more

10-Day Weather Forecast

Advertisements
Track Severe Weather on mobile